Walled Lake, MI (48390)

1:23 PM EDT on June 29, 2017 (GMT -0400)
Wolverine Lake | | Change Station

Elev 912 ft 42.55 °N, 83.50 °W | Updated 3 minutes ago

Mostly Cloudy
Mostly Cloudy
81.9 °F
Feels Like 86 °F
N
8.7
Wind Variable Wind from WSW
Gusts 16.1 mph

Today
High -- | Low -- °F
--% Chance of Precip.
Yesterday
High -- | Low -- °F
Precip. -- in
Pressure 29.79 in
Visibility 10.0 miles
Clouds Few 3300 ft
Scattered Clouds 19000 ft
Mostly Cloudy 23000 ft
Heat Index 86 °F
Dew Point 70 °F
Humidity 68%
Rainfall 0.00 in
Snow Depth Not available.
5:59 AM 9:15 PM
Waxing Crescent, 37% visible
METAR KPTK 291653Z 22015G21KT 10SM FEW033 SCT190 BKN230 28/18 A2981 RMK AO2 SLP086 T02780183
Pressure 29.79 in
Visibility 10.0 miles
Clouds Few 3300 ft
Scattered Clouds 19000 ft
Mostly Cloudy 23000 ft
Heat Index 86 °F
Dew Point 70 °F
Humidity 68%
Rainfall 0.00 in
Snow Depth Not available.
5:59 AM 9:15 PM
Waxing Crescent, 37% visible
METAR KPTK 291653Z 22015G21KT 10SM FEW033 SCT190 BKN230 28/18 A2981 RMK AO2 SLP086 T02780183

Get Severe Weather Alerts

Thanks for signing up!

Be on the lookout for a verification email in your inbox.

You'll start receiving the daily forecast at 6 AM.

×

10-Day Weather Forecast

Almanac

Astronomy

Jun. 29, 2017 Rise Set
Actual Time
Civil Twilight
Nautical Twilight
Astronomical Twilight
Moon
Length of Visible Light
Length of Day
Tomorrow will be .
, % of the Moon is Illuminated

Today's Extremes

State Highs State Lows

Community

WunderPhotos

Category 6

Welcome to Category 6. This is the collective home for Weather Underground's featured writeups by Dr. Jeff Masters (right), Bob Henson (left), Chris Burt, and other regular contributors.

Nearby

Air Quality

  Air Quality AQ Index Pollutant
Not available.

Snow Depth

Station Depth Elevation

Earthquake Activity

City Distance Mag. Time & Date
Minimum magnitude displayed is 2.5.

Coastal Water Temperatures

Place Temperature

Stations

Nearby Weather Stations

Station Location Temp. Windchill Dew Point Humidity Wind Precip. Elev Updated Type
                   

Watches & Warnings

There are currently no watches in effect.